N4908G KLAX-KDEN
Flight info
| Callsign | N4908G |
|---|---|
| Flight time | N/A |
| Altitude | 35000 |
| Route | ORCKA5 LAS J146 DICEE BUMMP SSKII4 |
| Aircraft | C700/M-VGDW/C |
Departure
| Time | 2026-04-22 22:09 |
|---|---|
| Airport | Los Angeles International Airport (KLAX) |
Arrival
| Time | N/A |
|---|---|
| Airport | Denver International Airport (KDEN) |
| Time | Latitude | Longitude | Altitude | Speed | Heading |
|---|---|---|---|---|---|
| 2026-04-22 21:49 | 33.93376 | -118.39916 | 120 ft | 0 kts | 23° |
| 2026-04-22 21:58 | 33.93377 | -118.39915 | 120 ft | 1 kts | 23° |
| 2026-04-22 21:59 | 33.93377 | -118.39905 | 120 ft | 4 kts | 90° |
| 2026-04-22 21:59 | 33.93377 | -118.39842 | 120 ft | 9 kts | 82° |
| 2026-04-22 21:59 | 33.93407 | -118.39813 | 119 ft | 0 kts | 356° |
| 2026-04-22 21:59 | 33.93418 | -118.39814 | 120 ft | 5 kts | 353° |
| 2026-04-22 22:00 | 33.93456 | -118.39803 | 120 ft | 7 kts | 55° |
| 2026-04-22 22:00 | 33.93463 | -118.39734 | 120 ft | 10 kts | 84° |
| 2026-04-22 22:00 | 33.93472 | -118.39637 | 120 ft | 13 kts | 80° |
| 2026-04-22 22:00 | 33.93489 | -118.39514 | 120 ft | 14 kts | 84° |
| 2026-04-22 22:01 | 33.93499 | -118.39387 | 120 ft | 16 kts | 83° |
| 2026-04-22 22:01 | 33.93512 | -118.39260 | 119 ft | 16 kts | 83° |
| 2026-04-22 22:01 | 33.93526 | -118.39118 | 120 ft | 19 kts | 83° |
| 2026-04-22 22:01 | 33.93543 | -118.38954 | 120 ft | 18 kts | 83° |
| 2026-04-22 22:02 | 33.93558 | -118.38809 | 120 ft | 17 kts | 83° |
| 2026-04-22 22:02 | 33.93574 | -118.38664 | 120 ft | 18 kts | 83° |
| 2026-04-22 22:02 | 33.93587 | -118.38526 | 120 ft | 16 kts | 83° |
| 2026-04-22 22:02 | 33.93602 | -118.38390 | 120 ft | 17 kts | 83° |
| 2026-04-22 22:03 | 33.93622 | -118.38293 | 120 ft | 9 kts | 51° |
| 2026-04-22 22:03 | 33.93636 | -118.38282 | 120 ft | 0 kts | 21° |
| 2026-04-22 22:05 | 33.93641 | -118.38280 | 120 ft | 0 kts | 17° |
| 2026-04-22 22:06 | 33.93644 | -118.38279 | 116 ft | 3 kts | 13° |
| 2026-04-22 22:06 | 33.93678 | -118.38280 | 119 ft | 7 kts | 352° |
| 2026-04-22 22:06 | 33.93727 | -118.38311 | 120 ft | 9 kts | 300° |
| 2026-04-22 22:07 | 33.93731 | -118.38345 | 119 ft | 0 kts | 262° |
| 2026-04-22 22:08 | 33.93728 | -118.38373 | 120 ft | 21 kts | 261° |
| 2026-04-22 22:08 | 33.93671 | -118.38931 | 119 ft | 113 kts | 262° |
| 2026-04-22 22:08 | 33.93547 | -118.40142 | 498 ft | 166 kts | 261° |
| 2026-04-22 22:08 | 33.93389 | -118.41784 | 509 ft | 215 kts | 262° |
| 2026-04-22 22:09 | 33.93173 | -118.43514 | 1268 ft | 199 kts | 261° |
| 2026-04-22 22:09 | 33.93018 | -118.45125 | 2677 ft | 192 kts | 263° |
| 2026-04-22 22:09 | 33.92619 | -118.46673 | 3876 ft | 197 kts | 247° |
| 2026-04-22 22:09 | 33.92053 | -118.48226 | 4891 ft | 213 kts | 250° |
| 2026-04-22 22:10 | 33.91467 | -118.50031 | 4999 ft | 233 kts | 251° |
| 2026-04-22 22:10 | 33.90872 | -118.51749 | 5395 ft | 216 kts | 249° |
| 2026-04-22 22:10 | 33.90256 | -118.53517 | 5980 ft | 246 kts | 250° |
| 2026-04-22 22:10 | 33.89637 | -118.55316 | 5991 ft | 229 kts | 250° |
| 2026-04-22 22:11 | 33.89009 | -118.57143 | 5986 ft | 229 kts | 250° |
| 2026-04-22 22:11 | 33.88372 | -118.58936 | 5992 ft | 246 kts | 246° |
| 2026-04-22 22:11 | 33.87294 | -118.60389 | 5978 ft | 237 kts | 218° |
| 2026-04-22 22:11 | 33.85734 | -118.60976 | 7102 ft | 236 kts | 188° |
| 2026-04-22 22:12 | 33.84150 | -118.60566 | 8431 ft | 235 kts | 154° |
| 2026-04-22 22:12 | 33.82948 | -118.59221 | 9583 ft | 245 kts | 123° |
| 2026-04-22 22:12 | 33.82527 | -118.57238 | 10507 ft | 254 kts | 88° |
| 2026-04-22 22:12 | 33.83072 | -118.55235 | 11364 ft | 257 kts | 50° |
| 2026-04-22 22:13 | 33.84333 | -118.53676 | 12489 ft | 270 kts | 38° |
| 2026-04-22 22:13 | 33.85773 | -118.52053 | 13467 ft | 297 kts | 37° |
| 2026-04-22 22:13 | 33.87361 | -118.50272 | 14384 ft | 324 kts | 37° |
| 2026-04-22 22:13 | 33.89065 | -118.48341 | 14981 ft | 364 kts | 38° |
| 2026-04-22 22:14 | 33.91064 | -118.46068 | 15008 ft | 420 kts | 39° |
| 2026-04-22 22:14 | 33.93169 | -118.43449 | 15006 ft | 430 kts | 47° |
| 2026-04-22 22:14 | 33.94872 | -118.40493 | 15006 ft | 448 kts | 53° |
| 2026-04-22 22:14 | 33.96567 | -118.37464 | 14996 ft | 432 kts | 52° |
| 2026-04-22 22:15 | 33.98327 | -118.34424 | 15004 ft | 430 kts | 52° |
| 2026-04-22 22:15 | 34.00036 | -118.31411 | 15332 ft | 433 kts | 53° |
| 2026-04-22 22:15 | 34.01643 | -118.28528 | 16593 ft | 406 kts | 52° |
| 2026-04-22 22:15 | 34.03197 | -118.25791 | 18785 ft | 392 kts | 51° |
| 2026-04-22 22:16 | 34.04786 | -118.23027 | 19796 ft | 406 kts | 51° |
| 2026-04-22 22:16 | 34.06381 | -118.20217 | 20889 ft | 414 kts | 52° |
| 2026-04-22 22:16 | 34.08018 | -118.17304 | 21983 ft | 423 kts | 52° |
| 2026-04-22 22:16 | 34.09700 | -118.14323 | 23055 ft | 432 kts | 52° |
| 2026-04-22 22:17 | 34.11395 | -118.11332 | 24028 ft | 440 kts | 52° |
| 2026-04-22 22:17 | 34.13138 | -118.08250 | 24901 ft | 446 kts | 52° |
| 2026-04-22 22:17 | 34.14899 | -118.05119 | 25774 ft | 452 kts | 52° |
| 2026-04-22 22:17 | 34.16664 | -118.01981 | 26622 ft | 459 kts | 52° |
| 2026-04-22 22:18 | 34.18479 | -117.98760 | 27451 ft | 465 kts | 52° |
| 2026-04-22 22:18 | 34.20307 | -117.95513 | 28272 ft | 471 kts | 52° |
| 2026-04-22 22:18 | 34.22158 | -117.92216 | 29049 ft | 477 kts | 52° |
| 2026-04-22 22:18 | 34.24036 | -117.88870 | 29795 ft | 484 kts | 52° |
| 2026-04-22 22:19 | 34.25937 | -117.85477 | 30523 ft | 489 kts | 52° |
| 2026-04-22 22:19 | 34.27840 | -117.82082 | 31159 ft | 495 kts | 52° |
| 2026-04-22 22:19 | 34.29796 | -117.78590 | 31773 ft | 500 kts | 52° |
| 2026-04-22 22:19 | 34.31733 | -117.75122 | 32357 ft | 505 kts | 52° |
| 2026-04-22 22:20 | 34.33718 | -117.71568 | 32931 ft | 510 kts | 52° |
| 2026-04-22 22:20 | 34.35758 | -117.67995 | 33560 ft | 513 kts | 50° |
| 2026-04-22 22:20 | 34.37862 | -117.64514 | 34263 ft | 512 kts | 49° |
| 2026-04-22 22:20 | 34.39930 | -117.61047 | 34897 ft | 512 kts | 50° |
| 2026-04-22 22:21 | 34.42028 | -117.57501 | 35098 ft | 524 kts | 50° |
| 2026-04-22 22:21 | 34.44207 | -117.53855 | 35109 ft | 539 kts | 50° |
| 2026-04-22 22:21 | 34.46415 | -117.50169 | 35128 ft | 553 kts | 50° |
| 2026-04-22 22:22 | 34.50903 | -117.42588 | 35147 ft | 548 kts | 50° |
| 2026-04-22 22:22 | 34.55360 | -117.35100 | 35146 ft | 545 kts | 50° |
| 2026-04-22 22:23 | 34.59768 | -117.27645 | 35146 ft | 545 kts | 50° |
| 2026-04-22 22:23 | 34.64209 | -117.20135 | 35116 ft | 545 kts | 50° |
| 2026-04-22 22:24 | 34.68606 | -117.12676 | 35091 ft | 545 kts | 50° |
| 2026-04-22 22:24 | 34.73005 | -117.05204 | 35049 ft | 545 kts | 50° |
| 2026-04-22 22:25 | 34.77424 | -116.97676 | 35056 ft | 545 kts | 51° |
| 2026-04-22 22:25 | 34.81812 | -116.90190 | 35062 ft | 545 kts | 51° |
| 2026-04-22 22:26 | 34.86219 | -116.82653 | 35065 ft | 545 kts | 51° |
| 2026-04-22 22:26 | 34.90606 | -116.75136 | 35065 ft | 545 kts | 51° |
| 2026-04-22 22:27 | 34.95499 | -116.68189 | 35055 ft | 541 kts | 42° |
| 2026-04-22 22:27 | 35.00610 | -116.61414 | 35046 ft | 542 kts | 43° |
| 2026-04-22 22:28 | 35.05723 | -116.54699 | 35033 ft | 542 kts | 42° |
| 2026-04-22 22:28 | 35.10836 | -116.47928 | 35038 ft | 543 kts | 43° |
| 2026-04-22 22:29 | 35.15978 | -116.41125 | 35035 ft | 543 kts | 43° |
| 2026-04-22 22:29 | 35.21077 | -116.34359 | 35033 ft | 543 kts | 43° |
| 2026-04-22 22:30 | 35.26178 | -116.27578 | 35023 ft | 543 kts | 43° |
| 2026-04-22 22:30 | 35.31284 | -116.20776 | 35015 ft | 540 kts | 43° |
| 2026-04-22 22:31 | 35.36380 | -116.13976 | 35021 ft | 543 kts | 43° |
| 2026-04-22 22:31 | 35.41507 | -116.07118 | 35026 ft | 544 kts | 44° |
| 2026-04-22 22:32 | 35.46610 | -116.00279 | 35030 ft | 545 kts | 44° |
| 2026-04-22 22:32 | 35.51729 | -115.93405 | 35039 ft | 544 kts | 44° |
| 2026-04-22 22:33 | 35.56824 | -115.86550 | 35042 ft | 544 kts | 44° |
| 2026-04-22 22:33 | 35.61078 | -115.80814 | 35045 ft | 544 kts | 44° |
| 2026-04-22 22:34 | 35.66154 | -115.73930 | 35047 ft | 545 kts | 45° |
| 2026-04-22 22:34 | 35.71184 | -115.66961 | 35051 ft | 545 kts | 45° |
| 2026-04-22 22:35 | 35.76277 | -115.59982 | 35046 ft | 545 kts | 45° |
| 2026-04-22 22:35 | 35.81319 | -115.53000 | 35042 ft | 546 kts | 45° |
| 2026-04-22 22:36 | 35.86361 | -115.46042 | 35035 ft | 545 kts | 45° |
| 2026-04-22 22:36 | 35.91391 | -115.39059 | 35026 ft | 546 kts | 45° |
| 2026-04-22 22:37 | 35.96422 | -115.32080 | 35019 ft | 546 kts | 46° |
| 2026-04-22 22:37 | 36.01460 | -115.25064 | 35020 ft | 546 kts | 46° |
| 2026-04-22 22:38 | 36.06454 | -115.17990 | 34985 ft | 548 kts | 50° |
| 2026-04-22 22:38 | 36.10190 | -115.09822 | 34987 ft | 549 kts | 67° |
| 2026-04-22 22:39 | 36.13294 | -115.01164 | 34939 ft | 549 kts | 66° |
| 2026-04-22 22:39 | 36.16385 | -114.92526 | 34934 ft | 549 kts | 67° |
| 2026-04-22 22:40 | 36.19472 | -114.83867 | 34921 ft | 548 kts | 67° |
| 2026-04-22 22:40 | 36.22541 | -114.75247 | 34909 ft | 547 kts | 67° |
| 2026-04-22 22:41 | 36.25592 | -114.66647 | 34895 ft | 546 kts | 67° |
| 2026-04-22 22:41 | 36.28626 | -114.58066 | 34886 ft | 546 kts | 67° |
| 2026-04-22 22:42 | 36.31685 | -114.49401 | 34891 ft | 546 kts | 67° |
| 2026-04-22 22:42 | 36.34712 | -114.40795 | 34894 ft | 546 kts | 67° |
| 2026-04-22 22:43 | 36.37740 | -114.32164 | 34898 ft | 546 kts | 68° |
| 2026-04-22 22:43 | 36.40757 | -114.23537 | 34893 ft | 545 kts | 68° |
| 2026-04-22 22:44 | 36.43783 | -114.14868 | 34904 ft | 545 kts | 68° |
| 2026-04-22 22:44 | 36.46784 | -114.06234 | 34914 ft | 545 kts | 68° |
| 2026-04-22 22:45 | 36.49773 | -113.97623 | 34915 ft | 544 kts | 68° |
| 2026-04-22 22:45 | 36.52758 | -113.88988 | 34919 ft | 543 kts | 68° |
| 2026-04-22 22:46 | 36.55734 | -113.80361 | 34920 ft | 543 kts | 68° |
| 2026-04-22 22:46 | 36.58700 | -113.71735 | 34924 ft | 541 kts | 68° |
| 2026-04-22 22:47 | 36.61640 | -113.63162 | 34923 ft | 541 kts | 68° |
| 2026-04-22 22:47 | 36.64589 | -113.54540 | 34922 ft | 541 kts | 68° |
| 2026-04-22 22:48 | 36.67529 | -113.45913 | 34918 ft | 540 kts | 68° |
| 2026-04-22 22:48 | 36.70461 | -113.37293 | 34920 ft | 539 kts | 68° |
| 2026-04-22 22:49 | 36.73378 | -113.28687 | 34941 ft | 539 kts | 68° |
| 2026-04-22 22:49 | 36.76288 | -113.20078 | 34973 ft | 538 kts | 68° |
| 2026-04-22 22:50 | 36.79191 | -113.11464 | 35003 ft | 538 kts | 68° |
| 2026-04-22 22:50 | 36.82082 | -113.02861 | 35024 ft | 537 kts | 68° |
| 2026-04-22 22:51 | 36.84962 | -112.94266 | 35037 ft | 537 kts | 69° |
| 2026-04-22 22:51 | 36.87822 | -112.85707 | 35021 ft | 536 kts | 69° |
| 2026-04-22 22:52 | 36.90684 | -112.77118 | 34992 ft | 534 kts | 69° |
| 2026-04-22 22:52 | 36.93529 | -112.68553 | 34948 ft | 533 kts | 69° |
| 2026-04-22 22:53 | 36.96349 | -112.60039 | 34901 ft | 531 kts | 69° |
| 2026-04-22 22:53 | 36.99163 | -112.51516 | 34880 ft | 530 kts | 69° |
| 2026-04-22 22:54 | 37.01961 | -112.43020 | 34874 ft | 528 kts | 69° |
| 2026-04-22 22:54 | 37.04752 | -112.34521 | 34865 ft | 527 kts | 69° |
| 2026-04-22 22:55 | 37.07518 | -112.26073 | 34867 ft | 525 kts | 69° |
| 2026-04-22 22:55 | 37.11649 | -112.13412 | 34854 ft | 522 kts | 69° |
| 2026-04-22 22:56 | 37.14380 | -112.05006 | 34837 ft | 521 kts | 69° |
| 2026-04-22 22:56 | 37.17096 | -111.96629 | 34829 ft | 519 kts | 69° |
| 2026-04-22 22:57 | 37.19818 | -111.88202 | 34821 ft | 518 kts | 69° |
| 2026-04-22 22:57 | 37.22515 | -111.79838 | 34810 ft | 517 kts | 69° |
| 2026-04-22 22:58 | 37.25183 | -111.71527 | 34808 ft | 515 kts | 69° |
| 2026-04-22 22:58 | 37.27843 | -111.63230 | 34797 ft | 513 kts | 68° |
| 2026-04-22 22:59 | 37.30491 | -111.54939 | 34797 ft | 511 kts | 68° |
| 2026-04-22 22:59 | 37.33136 | -111.46635 | 34793 ft | 509 kts | 68° |
| 2026-04-22 23:00 | 37.35752 | -111.38400 | 34790 ft | 508 kts | 68° |
| 2026-04-22 23:00 | 37.38355 | -111.30180 | 34781 ft | 507 kts | 69° |
| 2026-04-22 23:01 | 37.40959 | -111.21932 | 34777 ft | 506 kts | 69° |
| 2026-04-22 23:01 | 37.43550 | -111.13704 | 34765 ft | 506 kts | 69° |
| 2026-04-22 23:02 | 37.46109 | -111.05554 | 34765 ft | 504 kts | 69° |
| 2026-04-22 23:02 | 37.48687 | -110.97318 | 34774 ft | 504 kts | 69° |
| 2026-04-22 23:03 | 37.51250 | -110.89108 | 34769 ft | 504 kts | 69° |
| 2026-04-22 23:03 | 37.53806 | -110.80894 | 34760 ft | 504 kts | 69° |
| 2026-04-22 23:04 | 37.56364 | -110.72654 | 34763 ft | 504 kts | 69° |
| 2026-04-22 23:04 | 37.58898 | -110.64462 | 34768 ft | 504 kts | 69° |
| 2026-04-22 23:05 | 37.61434 | -110.56242 | 34764 ft | 503 kts | 70° |